sensor_id;sensor_type;location;lat;lon;timestamp;pressure;altitude;pressure_sealevel;temperature
19644;BMP180;9970;-36.854;174.870;2024-03-02T00:00:58;101038.00;;;23.90
19644;BMP180;9970;-36.854;174.870;2024-03-02T00:03:31;101034.00;;;24.00
19644;BMP180;9970;-36.854;174.870;2024-03-02T00:06:07;101038.00;;;24.00
19644;BMP180;9970;-36.854;174.870;2024-03-02T00:08:40;101031.00;;;24.00
19644;BMP180;9970;-36.854;174.870;2024-03-02T00:11:14;101023.00;;;24.00
19644;BMP180;9970;-36.854;174.870;2024-03-02T00:13:48;101028.00;;;24.00
19644;BMP180;9970;-36.854;174.870;2024-03-02T00:16:28;101014.00;;;24.00
19644;BMP180;9970;-36.854;174.870;2024-03-02T00:19:03;101017.00;;;24.10
19644;BMP180;9970;-36.854;174.870;2024-03-02T00:21:37;101020.00;;;24.10
19644;BMP180;9970;-36.854;174.870;2024-03-02T00:24:19;101016.00;;;24.10
19644;BMP180;9970;-36.854;174.870;2024-03-02T00:26:52;101022.00;;;24.20
19644;BMP180;9970;-36.854;174.870;2024-03-02T00:29:25;101014.00;;;24.20
19644;BMP180;9970;-36.854;174.870;2024-03-02T00:32:00;101014.00;;;24.20
19644;BMP180;9970;-36.854;174.870;2024-03-02T00:34:34;101021.00;;;24.20
19644;BMP180;9970;-36.854;174.870;2024-03-02T00:37:07;101010.00;;;24.20
19644;BMP180;9970;-36.854;174.870;2024-03-02T00:39:41;101016.00;;;24.30
19644;BMP180;9970;-36.854;174.870;2024-03-02T00:42:14;101009.00;;;24.40
19644;BMP180;9970;-36.854;174.870;2024-03-02T00:44:51;101015.00;;;24.50
19644;BMP180;9970;-36.854;174.870;2024-03-02T00:47:29;101016.00;;;24.50
19644;BMP180;9970;-36.854;174.870;2024-03-02T00:50:02;101016.00;;;24.60
19644;BMP180;9970;-36.854;174.870;2024-03-02T00:52:36;101016.00;;;24.70
19644;BMP180;9970;-36.854;174.870;2024-03-02T00:55:09;101003.00;;;24.70
19644;BMP180;9970;-36.854;174.870;2024-03-02T00:57:42;101007.00;;;24.80
19644;BMP180;9970;-36.854;174.870;2024-03-02T01:00:16;100999.00;;;24.80
19644;BMP180;9970;-36.854;174.870;2024-03-02T01:02:49;100996.00;;;24.80
19644;BMP180;9970;-36.854;174.870;2024-03-02T01:05:25;100998.00;;;24.90
19644;BMP180;9970;-36.854;174.870;2024-03-02T01:07:58;101005.00;;;24.90
19644;BMP180;9970;-36.854;174.870;2024-03-02T01:10:33;100996.00;;;24.90
19644;BMP180;9970;-36.854;174.870;2024-03-02T01:13:07;100993.00;;;25.00
19644;BMP180;9970;-36.854;174.870;2024-03-02T01:15:40;100992.00;;;25.00
19644;BMP180;9970;-36.854;174.870;2024-03-02T01:18:13;100998.00;;;25.10
19644;BMP180;9970;-36.854;174.870;2024-03-02T01:20:46;100990.00;;;25.10
19644;BMP180;9970;-36.854;174.870;2024-03-02T01:23:22;100990.00;;;25.10
19644;BMP180;9970;-36.854;174.870;2024-03-02T01:25:55;100990.00;;;25.00
19644;BMP180;9970;-36.854;174.870;2024-03-02T01:28:27;100989.00;;;25.00
19644;BMP180;9970;-36.854;174.870;2024-03-02T01:31:00;100987.00;;;25.00
19644;BMP180;9970;-36.854;174.870;2024-03-02T01:33:34;100985.00;;;25.10
19644;BMP180;9970;-36.854;174.870;2024-03-02T01:36:07;100984.00;;;25.10
19644;BMP180;9970;-36.854;174.870;2024-03-02T01:38:40;100985.00;;;25.10
19644;BMP180;9970;-36.854;174.870;2024-03-02T01:41:12;100983.00;;;25.10
19644;BMP180;9970;-36.854;174.870;2024-03-02T01:43:50;100990.00;;;25.10
19644;BMP180;9970;-36.854;174.870;2024-03-02T01:46:23;100983.00;;;25.00
19644;BMP180;9970;-36.854;174.870;2024-03-02T01:48:56;100981.00;;;25.00
19644;BMP180;9970;-36.854;174.870;2024-03-02T01:51:29;100982.00;;;25.00
19644;BMP180;9970;-36.854;174.870;2024-03-02T01:54:03;100982.00;;;25.00
19644;BMP180;9970;-36.854;174.870;2024-03-02T01:56:36;100982.00;;;25.00
19644;BMP180;9970;-36.854;174.870;2024-03-02T01:59:09;100987.00;;;25.10
19644;BMP180;9970;-36.854;174.870;2024-03-02T02:01:42;100979.00;;;25.10
19644;BMP180;9970;-36.854;174.870;2024-03-02T02:04:15;100980.00;;;25.20
19644;BMP180;9970;-36.854;174.870;2024-03-02T02:06:47;100974.00;;;25.20
19644;BMP180;9970;-36.854;174.870;2024-03-02T02:09:21;100977.00;;;25.30
19644;BMP180;9970;-36.854;174.870;2024-03-02T02:11:54;100961.00;;;25.30
19644;BMP180;9970;-36.854;174.870;2024-03-02T02:14:27;100965.00;;;25.30
19644;BMP180;9970;-36.854;174.870;2024-03-02T02:17:00;100958.00;;;25.30
19644;BMP180;9970;-36.854;174.870;2024-03-02T02:19:33;100949.00;;;25.40
19644;BMP180;9970;-36.854;174.870;2024-03-02T02:22:06;100947.00;;;25.40
19644;BMP180;9970;-36.854;174.870;2024-03-02T02:24:42;100951.00;;;25.40
19644;BMP180;9970;-36.854;174.870;2024-03-02T02:27:16;100943.00;;;25.30
19644;BMP180;9970;-36.854;174.870;2024-03-02T02:29:48;100944.00;;;25.30
19644;BMP180;9970;-36.854;174.870;2024-03-02T02:32:22;100942.00;;;25.30
19644;BMP180;9970;-36.854;174.870;2024-03-02T02:34:55;100937.00;;;25.30
19644;BMP180;9970;-36.854;174.870;2024-03-02T02:37:28;100938.00;;;25.30
19644;BMP180;9970;-36.854;174.870;2024-03-02T02:40:01;100927.00;;;25.20
19644;BMP180;9970;-36.854;174.870;2024-03-02T02:42:35;100918.00;;;25.30
19644;BMP180;9970;-36.854;174.870;2024-03-02T02:45:08;100926.00;;;25.30
19644;BMP180;9970;-36.854;174.870;2024-03-02T02:47:46;100920.00;;;25.30
19644;BMP180;9970;-36.854;174.870;2024-03-02T02:50:19;100920.00;;;25.40
19644;BMP180;9970;-36.854;174.870;2024-03-02T02:52:52;100920.00;;;25.40
19644;BMP180;9970;-36.854;174.870;2024-03-02T02:55:25;100912.00;;;25.50
19644;BMP180;9970;-36.854;174.870;2024-03-02T02:57:58;100909.00;;;25.40
19644;BMP180;9970;-36.854;174.870;2024-03-02T03:00:31;100909.00;;;25.50
19644;BMP180;9970;-36.854;174.870;2024-03-02T03:03:04;100902.00;;;25.40
19644;BMP180;9970;-36.854;174.870;2024-03-02T03:05:37;100906.00;;;25.50
19644;BMP180;9970;-36.854;174.870;2024-03-02T03:08:10;100897.00;;;25.50
19644;BMP180;9970;-36.854;174.870;2024-03-02T03:10:43;100905.00;;;25.50
19644;BMP180;9970;-36.854;174.870;2024-03-02T03:13:16;100896.00;;;25.60
19644;BMP180;9970;-36.854;174.870;2024-03-02T03:15:49;100897.00;;;25.60
19644;BMP180;9970;-36.854;174.870;2024-03-02T03:18:22;100893.00;;;25.60
19644;BMP180;9970;-36.854;174.870;2024-03-02T03:20:55;100898.00;;;25.60
19644;BMP180;9970;-36.854;174.870;2024-03-02T03:23:28;100895.00;;;25.60
19644;BMP180;9970;-36.854;174.870;2024-03-02T03:26:01;100905.00;;;25.60
19644;BMP180;9970;-36.854;174.870;2024-03-02T03:28:35;100903.00;;;25.60
19644;BMP180;9970;-36.854;174.870;2024-03-02T03:31:08;100897.00;;;25.60
19644;BMP180;9970;-36.854;174.870;2024-03-02T03:33:41;100895.00;;;25.60
19644;BMP180;9970;-36.854;174.870;2024-03-02T03:36:14;100893.00;;;25.50
19644;BMP180;9970;-36.854;174.870;2024-03-02T03:38:47;100891.00;;;25.50
19644;BMP180;9970;-36.854;174.870;2024-03-02T03:41:20;100890.00;;;25.50
19644;BMP180;9970;-36.854;174.870;2024-03-02T03:43:53;100886.00;;;25.40
19644;BMP180;9970;-36.854;174.870;2024-03-02T03:46:31;100882.00;;;25.40
19644;BMP180;9970;-36.854;174.870;2024-03-02T03:49:04;100883.00;;;25.50
19644;BMP180;9970;-36.854;174.870;2024-03-02T03:51:37;100894.00;;;25.40
19644;BMP180;9970;-36.854;174.870;2024-03-02T03:54:09;100877.00;;;25.40
19644;BMP180;9970;-36.854;174.870;2024-03-02T03:56:42;100889.00;;;25.40
19644;BMP180;9970;-36.854;174.870;2024-03-02T03:59:15;100880.00;;;25.30
19644;BMP180;9970;-36.854;174.870;2024-03-02T04:01:48;100887.00;;;25.30
19644;BMP180;9970;-36.854;174.870;2024-03-02T04:04:39;100886.00;;;25.30
19644;BMP180;9970;-36.854;174.870;2024-03-02T04:07:13;100877.00;;;25.30
19644;BMP180;9970;-36.854;174.870;2024-03-02T04:09:46;100876.00;;;25.30
19644;BMP180;9970;-36.854;174.870;2024-03-02T04:12:24;100883.00;;;25.30
19644;BMP180;9970;-36.854;174.870;2024-03-02T04:14:57;100879.00;;;25.20
19644;BMP180;9970;-36.854;174.870;2024-03-02T04:17:31;100874.00;;;25.20
19644;BMP180;9970;-36.854;174.870;2024-03-02T04:20:05;100868.00;;;25.10
19644;BMP180;9970;-36.854;174.870;2024-03-02T04:22:39;100883.00;;;25.10
19644;BMP180;9970;-36.854;174.870;2024-03-02T04:25:11;100877.00;;;25.10
19644;BMP180;9970;-36.854;174.870;2024-03-02T04:27:44;100864.00;;;25.10
19644;BMP180;9970;-36.854;174.870;2024-03-02T04:30:18;100866.00;;;25.00
19644;BMP180;9970;-36.854;174.870;2024-03-02T04:32:51;100867.00;;;25.00
19644;BMP180;9970;-36.854;174.870;2024-03-02T04:35:24;100859.00;;;25.00
19644;BMP180;9970;-36.854;174.870;2024-03-02T04:37:57;100869.00;;;24.90
19644;BMP180;9970;-36.854;174.870;2024-03-02T04:40:30;100864.00;;;24.90
19644;BMP180;9970;-36.854;174.870;2024-03-02T04:43:03;100870.00;;;24.90
19644;BMP180;9970;-36.854;174.870;2024-03-02T04:45:37;100863.00;;;24.90
19644;BMP180;9970;-36.854;174.870;2024-03-02T04:48:10;100860.00;;;24.90
19644;BMP180;9970;-36.854;174.870;2024-03-02T04:50:44;100869.00;;;24.80
19644;BMP180;9970;-36.854;174.870;2024-03-02T04:53:17;100865.00;;;24.80
19644;BMP180;9970;-36.854;174.870;2024-03-02T04:55:50;100864.00;;;24.80
19644;BMP180;9970;-36.854;174.870;2024-03-02T04:58:27;100859.00;;;24.80
19644;BMP180;9970;-36.854;174.870;2024-03-02T05:01:00;100856.00;;;24.80
19644;BMP180;9970;-36.854;174.870;2024-03-02T05:03:33;100864.00;;;24.70
19644;BMP180;9970;-36.854;174.870;2024-03-02T05:06:06;100859.00;;;24.70
19644;BMP180;9970;-36.854;174.870;2024-03-02T05:08:40;100872.00;;;24.70
19644;BMP180;9970;-36.854;174.870;2024-03-02T05:11:12;100872.00;;;24.70
19644;BMP180;9970;-36.854;174.870;2024-03-02T05:14:02;100876.00;;;24.70
19644;BMP180;9970;-36.854;174.870;2024-03-02T05:16:35;100876.00;;;24.70
19644;BMP180;9970;-36.854;174.870;2024-03-02T05:19:09;100872.00;;;24.70
19644;BMP180;9970;-36.854;174.870;2024-03-02T05:21:42;100863.00;;;24.70
19644;BMP180;9970;-36.854;174.870;2024-03-02T05:24:15;100861.00;;;24.70
19644;BMP180;9970;-36.854;174.870;2024-03-02T05:26:48;100862.00;;;24.70
19644;BMP180;9970;-36.854;174.870;2024-03-02T05:29:21;100864.00;;;24.70
19644;BMP180;9970;-36.854;174.870;2024-03-02T05:31:54;100858.00;;;24.60
19644;BMP180;9970;-36.854;174.870;2024-03-02T05:34:27;100865.00;;;24.60
19644;BMP180;9970;-36.854;174.870;2024-03-02T05:37:00;100861.00;;;24.60
19644;BMP180;9970;-36.854;174.870;2024-03-02T05:39:33;100858.00;;;24.60
19644;BMP180;9970;-36.854;174.870;2024-03-02T05:42:06;100856.00;;;24.60
19644;BMP180;9970;-36.854;174.870;2024-03-02T05:44:39;100836.00;;;24.60
19644;BMP180;9970;-36.854;174.870;2024-03-02T05:47:13;100844.00;;;24.60
19644;BMP180;9970;-36.854;174.870;2024-03-02T05:49:46;100831.00;;;24.50
19644;BMP180;9970;-36.854;174.870;2024-03-02T05:52:19;100846.00;;;24.50
19644;BMP180;9970;-36.854;174.870;2024-03-02T05:54:52;100854.00;;;24.50
19644;BMP180;9970;-36.854;174.870;2024-03-02T05:57:25;100855.00;;;24.40
19644;BMP180;9970;-36.854;174.870;2024-03-02T06:00:06;100862.00;;;24.40
19644;BMP180;9970;-36.854;174.870;2024-03-02T06:02:43;100860.00;;;24.40
19644;BMP180;9970;-36.854;174.870;2024-03-02T06:05:16;100864.00;;;24.30
19644;BMP180;9970;-36.854;174.870;2024-03-02T06:07:50;100860.00;;;24.30
19644;BMP180;9970;-36.854;174.870;2024-03-02T06:10:23;100862.00;;;24.20
19644;BMP180;9970;-36.854;174.870;2024-03-02T06:13:00;100865.00;;;24.20
19644;BMP180;9970;-36.854;174.870;2024-03-02T06:15:33;100869.00;;;24.20
19644;BMP180;9970;-36.854;174.870;2024-03-02T06:18:07;100869.00;;;24.10
19644;BMP180;9970;-36.854;174.870;2024-03-02T06:20:40;100870.00;;;24.10
19644;BMP180;9970;-36.854;174.870;2024-03-02T06:23:13;100865.00;;;24.10
19644;BMP180;9970;-36.854;174.870;2024-03-02T06:25:47;100870.00;;;24.10
19644;BMP180;9970;-36.854;174.870;2024-03-02T06:28:24;100867.00;;;24.10
19644;BMP180;9970;-36.854;174.870;2024-03-02T06:30:59;100863.00;;;24.10
19644;BMP180;9970;-36.854;174.870;2024-03-02T06:33:46;100875.00;;;24.00
19644;BMP180;9970;-36.854;174.870;2024-03-02T06:36:19;100870.00;;;24.00
19644;BMP180;9970;-36.854;174.870;2024-03-02T06:38:52;100865.00;;;24.00
19644;BMP180;9970;-36.854;174.870;2024-03-02T06:41:24;100864.00;;;24.00
19644;BMP180;9970;-36.854;174.870;2024-03-02T06:43:57;100866.00;;;24.00
19644;BMP180;9970;-36.854;174.870;2024-03-02T06:46:34;100872.00;;;23.90
19644;BMP180;9970;-36.854;174.870;2024-03-02T06:49:07;100883.00;;;23.90
19644;BMP180;9970;-36.854;174.870;2024-03-02T06:51:41;100881.00;;;23.80
19644;BMP180;9970;-36.854;174.870;2024-03-02T06:54:14;100886.00;;;23.80
19644;BMP180;9970;-36.854;174.870;2024-03-02T06:56:47;100897.00;;;23.80
19644;BMP180;9970;-36.854;174.870;2024-03-02T06:59:22;100893.00;;;23.70
19644;BMP180;9970;-36.854;174.870;2024-03-02T07:01:55;100907.00;;;23.70
19644;BMP180;9970;-36.854;174.870;2024-03-02T07:04:29;100896.00;;;23.70
19644;BMP180;9970;-36.854;174.870;2024-03-02T07:07:02;100899.00;;;23.70
19644;BMP180;9970;-36.854;174.870;2024-03-02T07:09:35;100900.00;;;23.60
19644;BMP180;9970;-36.854;174.870;2024-03-02T07:12:08;100907.00;;;23.60
19644;BMP180;9970;-36.854;174.870;2024-03-02T07:14:41;100907.00;;;23.60
19644;BMP180;9970;-36.854;174.870;2024-03-02T07:17:32;100908.00;;;23.60
19644;BMP180;9970;-36.854;174.870;2024-03-02T07:20:08;100916.00;;;23.60
19644;BMP180;9970;-36.854;174.870;2024-03-02T07:22:41;100910.00;;;23.60
19644;BMP180;9970;-36.854;174.870;2024-03-02T07:25:14;100917.00;;;23.60
19644;BMP180;9970;-36.854;174.870;2024-03-02T07:27:48;100920.00;;;23.60
19644;BMP180;9970;-36.854;174.870;2024-03-02T07:30:21;100916.00;;;23.60
19644;BMP180;9970;-36.854;174.870;2024-03-02T07:32:54;100916.00;;;23.50
19644;BMP180;9970;-36.854;174.870;2024-03-02T07:35:27;100914.00;;;23.50
19644;BMP180;9970;-36.854;174.870;2024-03-02T07:38:01;100922.00;;;23.50
19644;BMP180;9970;-36.854;174.870;2024-03-02T07:40:34;100920.00;;;23.50
19644;BMP180;9970;-36.854;174.870;2024-03-02T07:43:07;100921.00;;;23.50
19644;BMP180;9970;-36.854;174.870;2024-03-02T07:45:41;100935.00;;;23.50
19644;BMP180;9970;-36.854;174.870;2024-03-02T07:48:14;100938.00;;;23.50
19644;BMP180;9970;-36.854;174.870;2024-03-02T07:50:48;100937.00;;;23.50
19644;BMP180;9970;-36.854;174.870;2024-03-02T07:53:21;100937.00;;;23.50
19644;BMP180;9970;-36.854;174.870;2024-03-02T07:55:54;100929.00;;;23.50
19644;BMP180;9970;-36.854;174.870;2024-03-02T07:58:28;100931.00;;;23.50
19644;BMP180;9970;-36.854;174.870;2024-03-02T08:01:02;100921.00;;;23.40
19644;BMP180;9970;-36.854;174.870;2024-03-02T08:03:35;100921.00;;;23.40
19644;BMP180;9970;-36.854;174.870;2024-03-02T08:06:12;100925.00;;;23.40
19644;BMP180;9970;-36.854;174.870;2024-03-02T08:08:46;100914.00;;;23.40
19644;BMP180;9970;-36.854;174.870;2024-03-02T08:11:19;100914.00;;;23.40
19644;BMP180;9970;-36.854;174.870;2024-03-02T08:13:56;100925.00;;;23.40
19644;BMP180;9970;-36.854;174.870;2024-03-02T08:16:30;100920.00;;;23.30
19644;BMP180;9970;-36.854;174.870;2024-03-02T08:19:03;100927.00;;;23.40
19644;BMP180;9970;-36.854;174.870;2024-03-02T08:21:39;100929.00;;;23.40
19644;BMP180;9970;-36.854;174.870;2024-03-02T08:24:12;100924.00;;;23.30
19644;BMP180;9970;-36.854;174.870;2024-03-02T08:26:46;100918.00;;;23.30
19644;BMP180;9970;-36.854;174.870;2024-03-02T08:29:18;100922.00;;;23.30
19644;BMP180;9970;-36.854;174.870;2024-03-02T08:31:52;100925.00;;;23.30
19644;BMP180;9970;-36.854;174.870;2024-03-02T08:34:25;100935.00;;;23.30
19644;BMP180;9970;-36.854;174.870;2024-03-02T08:36:58;100923.00;;;23.30
19644;BMP180;9970;-36.854;174.870;2024-03-02T08:39:31;100924.00;;;23.20
19644;BMP180;9970;-36.854;174.870;2024-03-02T08:42:05;100929.00;;;23.20
19644;BMP180;9970;-36.854;174.870;2024-03-02T08:44:38;100934.00;;;23.20
19644;BMP180;9970;-36.854;174.870;2024-03-02T08:47:11;100942.00;;;23.20
19644;BMP180;9970;-36.854;174.870;2024-03-02T08:49:44;100941.00;;;23.20
19644;BMP180;9970;-36.854;174.870;2024-03-02T08:52:17;100948.00;;;23.20
19644;BMP180;9970;-36.854;174.870;2024-03-02T08:54:50;100944.00;;;23.20
19644;BMP180;9970;-36.854;174.870;2024-03-02T08:57:23;100941.00;;;23.20
19644;BMP180;9970;-36.854;174.870;2024-03-02T08:59:56;100936.00;;;23.20
19644;BMP180;9970;-36.854;174.870;2024-03-02T09:02:29;100938.00;;;23.20
19644;BMP180;9970;-36.854;174.870;2024-03-02T09:05:02;100936.00;;;23.20
19644;BMP180;9970;-36.854;174.870;2024-03-02T09:07:36;100936.00;;;23.20
19644;BMP180;9970;-36.854;174.870;2024-03-02T09:10:10;100941.00;;;23.10
19644;BMP180;9970;-36.854;174.870;2024-03-02T09:12:44;100946.00;;;23.10
19644;BMP180;9970;-36.854;174.870;2024-03-02T09:15:17;100944.00;;;23.10
19644;BMP180;9970;-36.854;174.870;2024-03-02T09:17:50;100947.00;;;23.10
19644;BMP180;9970;-36.854;174.870;2024-03-02T09:20:23;100955.00;;;23.10
19644;BMP180;9970;-36.854;174.870;2024-03-02T09:22:56;100962.00;;;23.10
19644;BMP180;9970;-36.854;174.870;2024-03-02T09:25:29;100977.00;;;23.10
19644;BMP180;9970;-36.854;174.870;2024-03-02T09:28:02;100978.00;;;23.10
19644;BMP180;9970;-36.854;174.870;2024-03-02T09:30:35;100978.00;;;23.10
19644;BMP180;9970;-36.854;174.870;2024-03-02T09:33:08;100979.00;;;23.10
19644;BMP180;9970;-36.854;174.870;2024-03-02T09:35:42;100973.00;;;23.10
19644;BMP180;9970;-36.854;174.870;2024-03-02T09:38:15;100978.00;;;23.10
19644;BMP180;9970;-36.854;174.870;2024-03-02T09:40:48;100967.00;;;23.10
19644;BMP180;9970;-36.854;174.870;2024-03-02T09:43:21;100975.00;;;23.10
19644;BMP180;9970;-36.854;174.870;2024-03-02T09:45:59;100970.00;;;23.00
19644;BMP180;9970;-36.854;174.870;2024-03-02T09:48:33;100963.00;;;23.10
19644;BMP180;9970;-36.854;174.870;2024-03-02T09:51:06;100965.00;;;23.10
19644;BMP180;9970;-36.854;174.870;2024-03-02T09:53:40;100960.00;;;23.10
19644;BMP180;9970;-36.854;174.870;2024-03-02T09:56:14;100947.00;;;23.00
19644;BMP180;9970;-36.854;174.870;2024-03-02T09:58:50;100961.00;;;23.00
19644;BMP180;9970;-36.854;174.870;2024-03-02T10:01:23;100961.00;;;23.00
19644;BMP180;9970;-36.854;174.870;2024-03-02T10:03:58;100960.00;;;23.00
19644;BMP180;9970;-36.854;174.870;2024-03-02T10:06:31;100970.00;;;23.00
19644;BMP180;9970;-36.854;174.870;2024-03-02T10:09:04;100965.00;;;23.00
19644;BMP180;9970;-36.854;174.870;2024-03-02T10:11:38;100969.00;;;23.00
19644;BMP180;9970;-36.854;174.870;2024-03-02T10:14:12;100973.00;;;23.00
19644;BMP180;9970;-36.854;174.870;2024-03-02T10:16:46;100961.00;;;23.10
19644;BMP180;9970;-36.854;174.870;2024-03-02T10:19:20;100949.00;;;23.10
19644;BMP180;9970;-36.854;174.870;2024-03-02T10:21:54;100947.00;;;23.10
19644;BMP180;9970;-36.854;174.870;2024-03-02T10:24:39;100931.00;;;23.00
19644;BMP180;9970;-36.854;174.870;2024-03-02T10:27:06;100933.00;;;23.00
19644;BMP180;9970;-36.854;174.870;2024-03-02T10:29:41;100927.00;;;23.10
19644;BMP180;9970;-36.854;174.870;2024-03-02T10:32:14;100929.00;;;23.10
19644;BMP180;9970;-36.854;174.870;2024-03-02T10:34:48;100922.00;;;23.10
19644;BMP180;9970;-36.854;174.870;2024-03-02T10:37:22;100929.00;;;23.10
19644;BMP180;9970;-36.854;174.870;2024-03-02T10:39:55;100939.00;;;23.10
19644;BMP180;9970;-36.854;174.870;2024-03-02T10:42:28;100943.00;;;23.10
19644;BMP180;9970;-36.854;174.870;2024-03-02T10:45:02;100931.00;;;23.10
19644;BMP180;9970;-36.854;174.870;2024-03-02T10:47:36;100922.00;;;23.10
19644;BMP180;9970;-36.854;174.870;2024-03-02T10:50:10;100922.00;;;23.00
19644;BMP180;9970;-36.854;174.870;2024-03-02T10:52:43;100916.00;;;23.00
19644;BMP180;9970;-36.854;174.870;2024-03-02T10:55:17;100918.00;;;23.00
19644;BMP180;9970;-36.854;174.870;2024-03-02T10:57:51;100919.00;;;23.00
19644;BMP180;9970;-36.854;174.870;2024-03-02T11:00:29;100928.00;;;23.00
19644;BMP180;9970;-36.854;174.870;2024-03-02T11:03:07;100929.00;;;23.00
19644;BMP180;9970;-36.854;174.870;2024-03-02T11:05:43;100932.00;;;23.00
19644;BMP180;9970;-36.854;174.870;2024-03-02T11:08:17;100928.00;;;23.00
19644;BMP180;9970;-36.854;174.870;2024-03-02T11:10:57;100926.00;;;23.00
19644;BMP180;9970;-36.854;174.870;2024-03-02T11:13:34;100924.00;;;23.00
19644;BMP180;9970;-36.854;174.870;2024-03-02T11:16:09;100926.00;;;23.00
19644;BMP180;9970;-36.854;174.870;2024-03-02T11:18:42;100920.00;;;23.00
19644;BMP180;9970;-36.854;174.870;2024-03-02T11:21:16;100914.00;;;23.00
19644;BMP180;9970;-36.854;174.870;2024-03-02T11:23:49;100911.00;;;23.00
19644;BMP180;9970;-36.854;174.870;2024-03-02T11:26:22;100920.00;;;23.00
19644;BMP180;9970;-36.854;174.870;2024-03-02T11:28:56;100908.00;;;23.00
19644;BMP180;9970;-36.854;174.870;2024-03-02T11:34:36;100904.00;;;23.00
19644;BMP180;9970;-36.854;174.870;2024-03-02T11:37:10;100894.00;;;23.00
19644;BMP180;9970;-36.854;174.870;2024-03-02T11:39:48;100892.00;;;22.90
19644;BMP180;9970;-36.854;174.870;2024-03-02T11:42:22;100882.00;;;23.00
19644;BMP180;9970;-36.854;174.870;2024-03-02T11:44:56;100893.00;;;22.90
19644;BMP180;9970;-36.854;174.870;2024-03-02T11:47:31;100890.00;;;22.90
19644;BMP180;9970;-36.854;174.870;2024-03-02T11:50:06;100896.00;;;22.90
19644;BMP180;9970;-36.854;174.870;2024-03-02T11:52:41;100894.00;;;22.90
19644;BMP180;9970;-36.854;174.870;2024-03-02T11:55:15;100893.00;;;22.90
19644;BMP180;9970;-36.854;174.870;2024-03-02T11:57:50;100887.00;;;22.90
19644;BMP180;9970;-36.854;174.870;2024-03-02T12:00:24;100896.00;;;22.90
19644;BMP180;9970;-36.854;174.870;2024-03-02T12:03:08;100887.00;;;22.90
19644;BMP180;9970;-36.854;174.870;2024-03-02T12:05:42;100886.00;;;22.80
19644;BMP180;9970;-36.854;174.870;2024-03-02T12:08:15;100884.00;;;22.80
19644;BMP180;9970;-36.854;174.870;2024-03-02T12:10:58;100885.00;;;22.80
19644;BMP180;9970;-36.854;174.870;2024-03-02T12:13:32;100893.00;;;22.80
19644;BMP180;9970;-36.854;174.870;2024-03-02T12:16:06;100885.00;;;22.80
19644;BMP180;9970;-36.854;174.870;2024-03-02T12:18:41;100892.00;;;22.80
19644;BMP180;9970;-36.854;174.870;2024-03-02T12:21:15;100881.00;;;22.80
19644;BMP180;9970;-36.854;174.870;2024-03-02T12:23:48;100883.00;;;22.80
19644;BMP180;9970;-36.854;174.870;2024-03-02T12:26:21;100893.00;;;22.80
19644;BMP180;9970;-36.854;174.870;2024-03-02T12:28:55;100890.00;;;22.80
19644;BMP180;9970;-36.854;174.870;2024-03-02T12:31:28;100891.00;;;22.80
19644;BMP180;9970;-36.854;174.870;2024-03-02T12:34:01;100898.00;;;22.80
19644;BMP180;9970;-36.854;174.870;2024-03-02T12:36:41;100905.00;;;22.80
19644;BMP180;9970;-36.854;174.870;2024-03-02T12:39:15;100890.00;;;22.70
19644;BMP180;9970;-36.854;174.870;2024-03-02T12:41:48;100896.00;;;22.70
19644;BMP180;9970;-36.854;174.870;2024-03-02T12:44:21;100886.00;;;22.70
19644;BMP180;9970;-36.854;174.870;2024-03-02T12:46:54;100891.00;;;22.70
19644;BMP180;9970;-36.854;174.870;2024-03-02T12:49:28;100889.00;;;22.70
19644;BMP180;9970;-36.854;174.870;2024-03-02T12:52:06;100877.00;;;22.70
19644;BMP180;9970;-36.854;174.870;2024-03-02T12:54:39;100879.00;;;22.80
19644;BMP180;9970;-36.854;174.870;2024-03-02T12:57:24;100874.00;;;22.70
19644;BMP180;9970;-36.854;174.870;2024-03-02T12:59:47;100876.00;;;22.70
19644;BMP180;9970;-36.854;174.870;2024-03-02T13:02:20;100870.00;;;22.70
19644;BMP180;9970;-36.854;174.870;2024-03-02T13:04:57;100860.00;;;22.80
19644;BMP180;9970;-36.854;174.870;2024-03-02T13:07:30;100853.00;;;22.70
19644;BMP180;9970;-36.854;174.870;2024-03-02T13:10:05;100849.00;;;22.70
19644;BMP180;9970;-36.854;174.870;2024-03-02T13:12:40;100844.00;;;22.80
19644;BMP180;9970;-36.854;174.870;2024-03-02T13:15:13;100843.00;;;22.80
19644;BMP180;9970;-36.854;174.870;2024-03-02T13:17:47;100836.00;;;22.80
19644;BMP180;9970;-36.854;174.870;2024-03-02T13:20:22;100828.00;;;22.80
19644;BMP180;9970;-36.854;174.870;2024-03-02T13:22:58;100819.00;;;22.80
19644;BMP180;9970;-36.854;174.870;2024-03-02T13:25:31;100832.00;;;22.80
19644;BMP180;9970;-36.854;174.870;2024-03-02T13:28:05;100845.00;;;22.80
19644;BMP180;9970;-36.854;174.870;2024-03-02T13:30:38;100834.00;;;22.80
19644;BMP180;9970;-36.854;174.870;2024-03-02T13:33:12;100829.00;;;22.80
19644;BMP180;9970;-36.854;174.870;2024-03-02T13:35:46;100837.00;;;22.80
19644;BMP180;9970;-36.854;174.870;2024-03-02T13:38:19;100831.00;;;22.80
19644;BMP180;9970;-36.854;174.870;2024-03-02T13:40:52;100820.00;;;22.80
19644;BMP180;9970;-36.854;174.870;2024-03-02T13:43:25;100821.00;;;22.80
19644;BMP180;9970;-36.854;174.870;2024-03-02T13:45:59;100819.00;;;22.80
19644;BMP180;9970;-36.854;174.870;2024-03-02T13:48:32;100820.00;;;22.80
19644;BMP180;9970;-36.854;174.870;2024-03-02T13:51:05;100814.00;;;22.80
19644;BMP180;9970;-36.854;174.870;2024-03-02T13:53:38;100823.00;;;22.80
19644;BMP180;9970;-36.854;174.870;2024-03-02T13:56:15;100810.00;;;22.80
19644;BMP180;9970;-36.854;174.870;2024-03-02T13:58:53;100813.00;;;22.80
19644;BMP180;9970;-36.854;174.870;2024-03-02T14:01:26;100798.00;;;22.80
19644;BMP180;9970;-36.854;174.870;2024-03-02T14:04:00;100803.00;;;22.80
19644;BMP180;9970;-36.854;174.870;2024-03-02T14:06:33;100797.00;;;22.80
19644;BMP180;9970;-36.854;174.870;2024-03-02T14:09:06;100797.00;;;22.80
19644;BMP180;9970;-36.854;174.870;2024-03-02T14:11:39;100798.00;;;22.80